Time;durP1;ratioP1;P1;durP2;ratioP2;P2;SDS_P1;SDS_P2;PMS_P1;PMS_P2;Temp;Humidity;BMP_temperature;BMP_pressure;BME280_temperature;BME280_humidity;BME280_pressure;Samples;Min_cycle;Max_cycle;Signal;HPM_P1;HPM_P2
2023/12/19 00:02:08;;;;;;;20.42;10.27;;;-2.00;99.90;;;;;;4952882;28;20497;-77
2023/12/19 00:04:33;;;;;;;16.95;8.98;;;-2.60;99.90;;;;;;4970239;28;20066;-77
2023/12/19 00:06:59;;;;;;;18.65;8.55;;;-2.60;99.90;;;;;;4952545;28;20034;-76
2023/12/19 00:09:25;;;;;;;22.90;9.07;;;-2.60;99.90;;;;;;4970105;28;20038;-76
2023/12/19 00:11:51;;;;;;;23.23;10.85;;;-2.50;99.90;;;;;;4969862;28;20462;-77
2023/12/19 00:14:16;;;;;;;20.55;9.85;;;-2.50;99.90;;;;;;4970720;28;20023;-78
2023/12/19 00:16:42;;;;;;;21.13;10.02;;;-2.50;99.90;;;;;;4952443;28;20038;-77
2023/12/19 00:19:09;;;;;;;23.88;9.93;;;-2.60;99.90;;;;;;4970185;28;20026;-77
2023/12/19 00:21:35;;;;;;;19.02;9.20;;;-2.30;99.90;;;;;;4970142;28;20114;-76
2023/12/19 00:24:00;;;;;;;26.65;10.50;;;-2.40;99.90;;;;;;4970804;28;20109;-79
2023/12/19 00:26:26;;;;;;;22.00;9.48;;;-2.50;99.90;;;;;;4974317;28;20490;-77
2023/12/19 00:28:52;;;;;;;23.02;10.35;;;-2.30;99.90;;;;;;4974014;28;20518;-77
2023/12/19 00:31:22;;;;;;;17.02;8.90;;;-2.60;99.90;;;;;;4975159;28;20306;-78
2023/12/19 00:33:47;;;;;;;17.52;8.07;;;-2.50;99.90;;;;;;4974144;28;20554;-80
2023/12/19 00:36:23;;;;;;;22.73;10.00;;;-2.70;99.90;;;;;;4973876;28;20071;-81
2023/12/19 00:38:49;;;;;;;21.45;9.82;;;-2.70;99.90;;;;;;4974168;28;20467;-75
2023/12/19 00:41:18;;;;;;;20.70;9.40;;;-2.70;99.90;;;;;;4973425;28;20084;-76
2023/12/19 00:43:44;;;;;;;17.70;8.20;;;-1.70;99.90;;;;;;4973307;28;20166;-76
2023/12/19 00:46:10;;;;;;;18.10;8.82;;;-2.70;99.90;;;;;;4973501;28;20027;-76
2023/12/19 00:48:36;;;;;;;19.38;8.75;;;-2.90;99.90;;;;;;4973548;28;20033;-75
2023/12/19 00:51:12;;;;;;;17.38;9.10;;;-2.80;99.90;;;;;;4973409;28;20033;-75
2023/12/19 00:53:38;;;;;;;18.17;8.52;;;-2.70;99.90;;;;;;4954303;28;20027;-75
2023/12/19 00:56:11;;;;;;;17.45;7.55;;;-2.50;99.90;;;;;;4953258;28;20027;-75
2023/12/19 00:58:37;;;;;;;20.77;9.27;;;-2.50;99.90;;;;;;4953648;29;20443;-75
2023/12/19 01:01:04;;;;;;;20.33;8.35;;;-2.40;99.90;;;;;;4953235;28;20087;-75
2023/12/19 01:03:30;;;;;;;12.50;7.25;;;-2.50;99.90;;;;;;4953239;28;20114;-75
2023/12/19 01:05:55;;;;;;;20.20;9.02;;;-1.70;99.90;;;;;;4953573;28;20110;-75
2023/12/19 01:08:21;;;;;;;21.88;9.65;;;-2.60;99.90;;;;;;4953938;28;20070;-75
2023/12/19 01:10:47;;;;;;;18.60;8.00;;;-1.30;99.90;;;;;;4952794;28;20055;-75
2023/12/19 01:13:12;;;;;;;17.88;7.78;;;-2.80;99.90;;;;;;4936262;29;20547;-75
2023/12/19 01:15:38;;;;;;;19.67;8.13;;;-2.80;99.90;;;;;;4953506;28;20032;-75
2023/12/19 01:18:04;;;;;;;19.35;8.50;;;-2.80;99.90;;;;;;4952800;28;20488;-76
2023/12/19 01:20:30;;;;;;;17.02;7.95;;;-2.00;99.90;;;;;;4953334;28;20052;-76
2023/12/19 01:22:55;;;;;;;13.40;7.80;;;-2.90;99.90;;;;;;4953504;28;20031;-76
2023/12/19 01:25:21;;;;;;;14.68;6.75;;;-3.10;99.90;;;;;;4935795;29;20023;-75
2023/12/19 01:27:46;;;;;;;14.05;8.18;;;-3.10;99.90;;;;;;4936206;29;20019;-75
2023/12/19 01:30:13;;;;;;;16.30;7.75;;;-3.10;99.90;;;;;;4953561;28;20027;-75
2023/12/19 01:32:39;;;;;;;14.23;7.88;;;-3.10;99.90;;;;;;4953299;28;20081;-76
2023/12/19 01:35:05;;;;;;;13.75;6.85;;;-3.10;99.90;;;;;;4952920;28;20026;-75
2023/12/19 01:37:31;;;;;;;18.10;8.27;;;-3.10;99.90;;;;;;4934736;29;20047;-76
2023/12/19 01:39:56;;;;;;;14.55;6.60;;;-3.20;99.90;;;;;;4952979;29;20487;-76
2023/12/19 01:42:23;;;;;;;14.93;6.93;;;-3.10;99.90;;;;;;4952782;28;20496;-76
2023/12/19 01:45:10;;;;;;;18.42;8.73;;;-2.40;99.90;;;;;;4952584;28;20302;-75
2023/12/19 01:47:40;;;;;;;17.60;8.15;;;-3.20;99.90;;;;;;4936140;29;20019;-76
2023/12/19 01:50:14;;;;;;;15.60;8.05;;;-3.30;99.90;;;;;;4954084;28;20031;-76
2023/12/19 01:53:00;;;;;;;15.02;6.60;;;-3.30;99.90;;;;;;4965012;28;20311;-76
2023/12/19 01:55:27;;;;;;;14.48;7.45;;;-3.40;99.90;;;;;;4971694;28;20193;-76
2023/12/19 01:57:56;;;;;;;12.27;6.88;;;-3.40;99.90;;;;;;4972284;28;20070;-76
2023/12/19 02:00:22;;;;;;;16.05;7.72;;;-2.50;99.90;;;;;;4971981;28;20043;-75
2023/12/19 02:02:51;;;;;;;17.23;7.70;;;-2.20;99.90;;;;;;4954653;28;20042;-76
2023/12/19 02:05:17;;;;;;;11.68;6.22;;;-3.20;99.90;;;;;;4972040;28;20031;-75
2023/12/19 02:07:43;;;;;;;13.13;6.78;;;-3.20;99.90;;;;;;4972193;28;20078;-76
2023/12/19 02:10:10;;;;;;;13.23;6.13;;;-3.30;99.90;;;;;;4971869;28;20483;-76
2023/12/19 02:12:37;;;;;;;14.07;6.60;;;-3.30;99.90;;;;;;4972037;28;20034;-76
2023/12/19 02:15:04;;;;;;;12.40;6.80;;;-3.30;99.90;;;;;;4971578;28;20022;-76
2023/12/19 02:17:30;;;;;;;14.60;7.35;;;-3.30;99.90;;;;;;4971923;28;20109;-76
2023/12/19 02:19:55;;;;;;;12.88;6.00;;;-3.30;99.90;;;;;;4971504;28;20031;-75
2023/12/19 02:22:21;;;;;;;13.35;6.10;;;-2.40;99.90;;;;;;4971211;28;20073;-76
2023/12/19 02:24:48;;;;;;;13.00;6.78;;;-3.20;99.90;;;;;;4971068;28;20027;-75
2023/12/19 02:27:14;;;;;;;14.15;6.03;;;-1.90;99.90;;;;;;4971268;28;20549;-76
2023/12/19 02:29:40;;;;;;;14.05;7.45;;;-3.10;99.90;;;;;;4953863;28;20090;-76
2023/12/19 02:32:06;;;;;;;11.05;6.65;;;-3.10;99.90;;;;;;4971207;28;20030;-76
2023/12/19 02:34:32;;;;;;;12.25;6.40;;;-3.20;99.90;;;;;;4970931;28;20081;-75
2023/12/19 02:36:57;;;;;;;14.95;7.95;;;-3.30;99.90;;;;;;4971252;28;20502;-75
2023/12/19 02:39:23;;;;;;;15.02;5.97;;;-3.30;99.90;;;;;;4953771;28;20026;-76
2023/12/19 02:41:52;;;;;;;15.50;6.93;;;-3.20;99.90;;;;;;4971052;28;20018;-76
2023/12/19 02:44:18;;;;;;;13.65;6.18;;;-2.00;99.90;;;;;;4971195;28;20038;-76
2023/12/19 02:46:43;;;;;;;12.55;6.63;;;-2.50;99.90;;;;;;4970575;28;20027;-76
2023/12/19 02:49:09;;;;;;;10.32;6.22;;;-2.90;99.90;;;;;;4970882;28;20030;-76
2023/12/19 02:51:35;;;;;;;11.63;6.32;;;-2.60;99.90;;;;;;4966843;28;20122;-75
2023/12/19 02:54:00;;;;;;;17.60;6.38;;;-2.40;99.90;;;;;;4951659;29;20488;-75
2023/12/19 02:56:28;;;;;;;13.63;6.78;;;-3.40;99.90;;;;;;4951262;29;20091;-75
2023/12/19 02:58:54;;;;;;;13.20;6.20;;;-2.40;99.90;;;;;;4933663;29;20038;-75
2023/12/19 03:01:19;;;;;;;14.75;6.30;;;-1.90;99.90;;;;;;4951420;29;20396;-76
2023/12/19 03:03:45;;;;;;;12.13;6.32;;;-2.50;99.90;;;;;;4951373;29;20301;-76
2023/12/19 03:06:13;;;;;;;15.68;6.35;;;-3.70;99.90;;;;;;4951467;29;20030;-76
2023/12/19 03:08:47;;;;;;;16.35;6.07;;;-3.70;99.90;;;;;;4934062;29;20031;-75
2023/12/19 03:11:13;;;;;;;12.80;6.40;;;-3.60;99.90;;;;;;4950898;29;20031;-75
2023/12/19 03:13:39;;;;;;;10.77;6.03;;;-3.60;99.90;;;;;;4951222;29;20102;-75
2023/12/19 03:16:05;;;;;;;13.40;6.25;;;-3.40;99.90;;;;;;4951157;29;20115;-76
2023/12/19 03:18:31;;;;;;;14.98;6.15;;;-3.60;99.90;;;;;;4951527;29;20036;-75
2023/12/19 03:20:57;;;;;;;12.38;5.90;;;-3.70;99.90;;;;;;4951219;29;20034;-75
2023/12/19 03:23:23;;;;;;;12.63;5.80;;;-3.70;99.90;;;;;;4951057;29;20039;-76
2023/12/19 03:25:49;;;;;;;11.02;5.75;;;-3.70;99.90;;;;;;4933554;29;20094;-76
2023/12/19 03:28:15;;;;;;;13.05;5.55;;;-3.90;99.90;;;;;;4951015;29;20037;-76
2023/12/19 03:30:41;;;;;;;13.55;4.95;;;-3.70;99.90;;;;;;4950872;29;20019;-76
2023/12/19 03:33:07;;;;;;;8.60;4.88;;;-3.60;99.90;;;;;;4951336;29;20158;-76
2023/12/19 03:35:33;;;;;;;6.93;4.55;;;-3.50;99.90;;;;;;4951210;29;20106;-76
2023/12/19 03:37:59;;;;;;;7.68;4.40;;;-3.40;99.90;;;;;;4954768;28;20098;-76
2023/12/19 03:40:25;;;;;;;10.60;5.20;;;-3.40;99.90;;;;;;4952682;28;20035;-76
2023/12/19 03:42:51;;;;;;;12.40;5.10;;;-2.90;99.90;;;;;;4969887;28;20534;-76
2023/12/19 03:45:16;;;;;;;9.60;5.18;;;-3.60;99.90;;;;;;4970353;28;20430;-76
2023/12/19 03:47:42;;;;;;;9.23;4.45;;;-2.90;99.90;;;;;;4970172;28;20029;-76
2023/12/19 03:50:08;;;;;;;11.40;5.43;;;-3.80;99.90;;;;;;4970558;28;20121;-75
2023/12/19 03:52:35;;;;;;;8.57;4.85;;;-3.90;99.90;;;;;;4942094;29;20039;-75
2023/12/19 03:55:01;;;;;;;12.52;4.93;;;-4.00;99.90;;;;;;4950610;28;20471;-76
2023/12/19 03:57:27;;;;;;;9.20;4.80;;;-3.90;99.90;;;;;;4933771;28;20689;-76
2023/12/19 03:59:53;;;;;;;10.25;5.22;;;-4.00;99.90;;;;;;4952204;28;20223;-75
2023/12/19 04:02:18;;;;;;;9.40;4.60;;;-3.90;99.90;;;;;;4937321;29;20027;-75
2023/12/19 04:04:44;;;;;;;12.70;6.13;;;-3.90;99.90;;;;;;4954440;28;20046;-76
2023/12/19 04:07:10;;;;;;;12.38;4.70;;;-3.90;99.90;;;;;;4953991;28;20047;-75
2023/12/19 04:09:36;;;;;;;11.35;4.38;;;-4.00;99.90;;;;;;4958019;28;20348;-76
2023/12/19 04:12:02;;;;;;;7.43;3.50;;;-3.90;99.90;;;;;;4953030;28;20111;-75
2023/12/19 04:14:31;;;;;;;8.43;4.57;;;-3.90;99.90;;;;;;4953875;28;20027;-75
2023/12/19 04:16:58;;;;;;;8.38;3.83;;;-3.80;99.90;;;;;;4954503;28;20035;-75
2023/12/19 04:19:23;;;;;;;7.32;4.88;;;-3.80;99.90;;;;;;4954372;28;20027;-75
2023/12/19 04:21:50;;;;;;;8.48;4.32;;;-3.40;99.90;;;;;;4956469;29;20408;-75
2023/12/19 04:24:16;;;;;;;5.13;3.70;;;-3.70;99.90;;;;;;4953930;29;20575;-74
2023/12/19 04:26:42;;;;;;;5.93;3.80;;;-3.70;99.90;;;;;;4953537;28;20447;-74
2023/12/19 04:29:08;;;;;;;7.50;3.75;;;-3.80;99.90;;;;;;4954197;28;20062;-74
2023/12/19 04:31:34;;;;;;;8.30;3.83;;;-3.90;99.90;;;;;;4953816;28;20467;-74
2023/12/19 04:34:01;;;;;;;10.02;4.32;;;-3.30;99.90;;;;;;4953942;28;20027;-75
2023/12/19 04:36:28;;;;;;;9.35;4.22;;;-4.00;99.90;;;;;;4954294;28;20027;-75
2023/12/19 04:38:53;;;;;;;11.40;5.38;;;-3.90;99.90;;;;;;4935402;29;20413;-74
2023/12/19 04:41:19;;;;;;;9.52;4.13;;;-3.90;99.90;;;;;;4951846;28;20024;-75
2023/12/19 04:43:44;;;;;;;7.78;4.80;;;-3.90;99.90;;;;;;4952001;29;20439;-75
2023/12/19 04:46:10;;;;;;;11.02;5.95;;;-3.40;99.90;;;;;;4952675;28;20680;-75
2023/12/19 04:48:36;;;;;;;11.95;5.47;;;-3.90;99.90;;;;;;4952602;28;20393;-75
2023/12/19 04:51:02;;;;;;;12.68;4.57;;;-3.90;99.90;;;;;;4952606;28;20058;-75
2023/12/19 04:53:28;;;;;;;8.07;4.20;;;-3.80;99.90;;;;;;4953090;28;20022;-75
2023/12/19 04:55:53;;;;;;;12.40;5.88;;;-3.90;99.90;;;;;;4972584;28;20045;-75
2023/12/19 04:58:19;;;;;;;10.30;5.32;;;-4.00;99.90;;;;;;4972730;28;20039;-75
2023/12/19 05:00:45;;;;;;;9.93;4.72;;;-4.00;99.90;;;;;;4972752;28;20051;-75
2023/12/19 05:03:10;;;;;;;9.55;4.28;;;-3.60;99.90;;;;;;4983208;28;20035;-75
2023/12/19 05:05:36;;;;;;;7.38;3.97;;;-4.00;99.90;;;;;;4983092;28;20111;-75
2023/12/19 05:08:02;;;;;;;7.00;3.92;;;-3.50;99.90;;;;;;4982961;28;20211;-74
2023/12/19 05:10:27;;;;;;;10.30;4.63;;;-4.10;99.90;;;;;;4981784;28;20316;-75
2023/12/19 05:12:53;;;;;;;8.90;4.50;;;-3.40;99.90;;;;;;4980971;28;20081;-75
2023/12/19 05:15:19;;;;;;;7.55;5.07;;;-4.00;99.90;;;;;;4965454;28;20102;-75
2023/12/19 05:17:45;;;;;;;8.85;4.43;;;-4.00;99.90;;;;;;4981960;28;20022;-74
2023/12/19 05:20:10;;;;;;;7.38;4.00;;;-4.10;99.90;;;;;;4982806;28;20388;-75
2023/12/19 05:22:36;;;;;;;10.40;6.20;;;-4.10;99.90;;;;;;4982367;28;20035;-75
2023/12/19 05:25:02;;;;;;;7.25;4.43;;;-4.00;99.90;;;;;;4964483;28;20290;-75
2023/12/19 05:27:27;;;;;;;8.38;4.85;;;-4.10;99.90;;;;;;4982470;28;20034;-75
2023/12/19 05:29:53;;;;;;;8.73;4.80;;;-4.20;99.90;;;;;;4981716;28;20040;-75
2023/12/19 05:32:19;;;;;;;12.70;4.10;;;-4.30;99.90;;;;;;4982221;28;20389;-75
2023/12/19 05:34:45;;;;;;;8.82;4.40;;;-4.20;99.90;;;;;;4983111;28;20045;-75
2023/12/19 05:37:11;;;;;;;8.23;4.00;;;-4.10;99.90;;;;;;4964878;28;20354;-75
2023/12/19 05:39:37;;;;;;;7.80;4.00;;;-4.20;99.90;;;;;;4982170;28;20030;-75
2023/12/19 05:42:03;;;;;;;8.75;4.32;;;-4.20;99.90;;;;;;4982034;28;20094;-75
2023/12/19 05:44:28;;;;;;;11.13;3.78;;;-4.00;99.90;;;;;;4981640;28;20042;-74
2023/12/19 05:46:56;;;;;;;15.43;6.18;;;-4.00;99.90;;;;;;4979643;28;20077;-75
2023/12/19 05:49:21;;;;;;;10.88;5.95;;;-3.90;99.90;;;;;;4981589;28;20030;-75
2023/12/19 05:51:47;;;;;;;9.75;5.07;;;-4.00;99.90;;;;;;4964507;28;20246;-74
2023/12/19 05:54:13;;;;;;;14.63;6.57;;;-3.60;99.90;;;;;;4981831;28;20394;-75
2023/12/19 05:56:39;;;;;;;5.10;3.85;;;-3.90;99.90;;;;;;4980553;28;20031;-75
2023/12/19 05:59:04;;;;;;;12.18;4.65;;;-4.30;99.90;;;;;;4962556;28;20334;-74
2023/12/19 06:01:30;;;;;;;7.82;4.00;;;-4.40;99.90;;;;;;4981009;28;20082;-75
2023/12/19 06:03:56;;;;;;;5.93;4.55;;;-4.40;99.90;;;;;;4979654;28;20030;-75
2023/12/19 06:06:21;;;;;;;11.23;4.32;;;-4.30;99.90;;;;;;4963136;28;20034;-75
2023/12/19 06:08:47;;;;;;;7.97;4.25;;;-4.20;99.90;;;;;;4980217;28;20018;-75
2023/12/19 06:11:13;;;;;;;11.45;5.57;;;-4.10;99.90;;;;;;4980227;28;20341;-75
2023/12/19 06:13:39;;;;;;;11.95;3.83;;;-3.90;99.90;;;;;;4980438;28;20030;-75
2023/12/19 06:16:08;;;;;;;12.98;5.45;;;-3.90;99.90;;;;;;4981771;28;20307;-74
2023/12/19 06:18:34;;;;;;;8.32;4.40;;;-4.00;99.90;;;;;;4981335;28;20035;-75
2023/12/19 06:21:00;;;;;;;8.80;4.20;;;-4.00;99.90;;;;;;4981474;28;20109;-75
2023/12/19 06:23:29;;;;;;;10.82;5.10;;;-4.10;99.90;;;;;;4980175;28;20027;-75
2023/12/19 06:25:54;;;;;;;13.27;5.00;;;-4.00;99.90;;;;;;4981615;28;20086;-74
2023/12/19 06:28:20;;;;;;;10.57;5.20;;;-4.00;99.90;;;;;;4981343;28;20038;-75
2023/12/19 06:30:46;;;;;;;10.95;5.43;;;-3.00;99.90;;;;;;4979711;28;20517;-76
2023/12/19 06:33:11;;;;;;;6.95;4.25;;;-4.10;99.90;;;;;;4980846;28;20030;-75
2023/12/19 06:35:42;;;;;;;8.00;4.60;;;-3.00;99.90;;;;;;4980707;28;20278;-75
2023/12/19 06:38:08;;;;;;;11.18;5.20;;;-4.10;99.90;;;;;;4980462;28;20022;-75
2023/12/19 06:40:35;;;;;;;10.35;4.82;;;-4.00;99.90;;;;;;4963622;28;20093;-75
2023/12/19 06:43:02;;;;;;;12.07;5.15;;;-3.80;99.90;;;;;;4980854;28;20039;-75
2023/12/19 06:45:28;;;;;;;8.32;4.72;;;-3.70;99.90;;;;;;4980590;28;20037;-76
2023/12/19 06:47:54;;;;;;;12.20;5.32;;;-3.00;99.90;;;;;;4980890;28;20019;-75
2023/12/19 06:50:20;;;;;;;11.27;5.35;;;-3.70;99.90;;;;;;4980805;28;20033;-75
2023/12/19 06:52:46;;;;;;;14.10;5.82;;;-3.70;99.90;;;;;;4969310;28;20031;-77
2023/12/19 06:55:12;;;;;;;10.30;5.72;;;-3.70;99.90;;;;;;4944309;28;20070;-77
2023/12/19 06:57:38;;;;;;;8.70;5.30;;;-2.10;99.90;;;;;;4961963;28;20023;-76
2023/12/19 07:00:06;;;;;;;9.02;6.18;;;-3.80;99.90;;;;;;4945282;29;20319;-77
2023/12/19 07:02:32;;;;;;;22.73;6.80;;;-4.00;99.90;;;;;;4939330;29;20273;-76
2023/12/19 07:04:58;;;;;;;12.02;5.95;;;-3.90;99.90;;;;;;4941993;28;20031;-76
2023/12/19 07:07:24;;;;;;;13.23;6.25;;;-3.60;99.90;;;;;;4960124;28;20031;-77
2023/12/19 07:09:50;;;;;;;14.82;5.78;;;-3.50;99.90;;;;;;4955578;28;20031;-77
2023/12/19 07:12:16;;;;;;;8.43;5.75;;;-3.60;99.90;;;;;;4960086;28;20066;-76
2023/12/19 07:14:45;;;;;;;14.20;5.47;;;-3.70;99.90;;;;;;4942120;29;20094;-75
2023/12/19 07:17:10;;;;;;;9.85;5.47;;;-3.70;99.90;;;;;;4959825;28;20030;-76
2023/12/19 07:19:36;;;;;;;16.83;8.68;;;-3.70;99.90;;;;;;4958959;28;20086;-76
2023/12/19 07:22:02;;;;;;;17.73;8.85;;;-3.40;99.90;;;;;;4958999;28;20047;-76
2023/12/19 07:24:28;;;;;;;15.82;7.20;;;-3.70;99.90;;;;;;4941466;29;20043;-76
2023/12/19 07:26:57;;;;;;;17.55;8.93;;;-3.60;99.90;;;;;;4960222;28;20016;-76
2023/12/19 07:29:23;;;;;;;14.90;6.35;;;-3.60;99.90;;;;;;4942238;29;20055;-77
2023/12/19 07:31:49;;;;;;;15.00;7.10;;;-3.60;99.90;;;;;;4942675;29;20023;-76
2023/12/19 07:34:15;;;;;;;11.07;6.00;;;-2.90;99.90;;;;;;4942098;28;20207;-77
2023/12/19 07:36:41;;;;;;;10.82;5.68;;;-3.70;99.90;;;;;;4959450;28;20029;-77
2023/12/19 07:39:07;;;;;;;10.43;5.70;;;-3.50;99.90;;;;;;4959156;28;20250;-77
2023/12/19 07:41:33;;;;;;;12.50;6.45;;;-3.30;99.90;;;;;;4959372;28;20046;-76
2023/12/19 07:43:59;;;;;;;14.00;7.15;;;-3.10;99.90;;;;;;4958915;28;20392;-75
2023/12/19 07:46:24;;;;;;;13.50;6.63;;;-3.10;99.90;;;;;;4959424;28;20023;-76
2023/12/19 07:48:51;;;;;;;12.75;6.93;;;-3.00;99.90;;;;;;4960102;28;20027;-76
2023/12/19 07:51:23;;;;;;;15.52;6.90;;;-2.90;99.90;;;;;;4961404;28;20031;-75
2023/12/19 07:53:50;;;;;;;13.25;7.13;;;-2.80;99.90;;;;;;4980060;28;20031;-76
2023/12/19 07:56:16;;;;;;;14.32;7.03;;;-2.80;99.90;;;;;;4980436;28;20030;-76
2023/12/19 07:58:41;;;;;;;15.63;7.32;;;-2.60;99.90;;;;;;4979340;28;20179;-76
2023/12/19 08:01:14;;;;;;;18.58;8.48;;;-2.80;99.90;;;;;;4962000;28;20065;-76
2023/12/19 08:03:42;;;;;;;12.82;6.50;;;-2.80;99.90;;;;;;4962136;28;20038;-76
2023/12/19 08:06:08;;;;;;;14.18;6.85;;;-2.90;99.90;;;;;;4962294;28;20019;-76
2023/12/19 08:08:34;;;;;;;49.95;16.95;;;-2.90;99.90;;;;;;4979338;28;20053;-76
2023/12/19 08:10:59;;;;;;;17.30;7.75;;;-2.50;99.90;;;;;;4979252;28;20027;-76
2023/12/19 08:13:26;;;;;;;24.73;8.52;;;-2.90;99.90;;;;;;4979418;28;20033;-76
2023/12/19 08:15:52;;;;;;;17.92;7.28;;;-2.10;99.90;;;;;;4979182;28;20027;-77
2023/12/19 08:18:19;;;;;;;13.73;6.45;;;-2.80;99.90;;;;;;4962056;28;20034;-76
2023/12/19 08:20:45;;;;;;;13.52;7.97;;;-2.80;99.90;;;;;;4963378;28;20019;-76
2023/12/19 08:23:10;;;;;;;12.57;6.47;;;-2.40;99.90;;;;;;4979889;28;20074;-75
2023/12/19 08:25:37;;;;;;;15.35;6.78;;;-2.70;99.90;;;;;;4979785;28;20039;-75
2023/12/19 08:28:04;;;;;;;12.35;7.25;;;-2.60;99.90;;;;;;4979157;28;20023;-76
2023/12/19 08:30:30;;;;;;;16.83;8.07;;;-2.60;99.90;;;;;;4962491;28;20023;-76
2023/12/19 08:32:59;;;;;;;17.52;9.20;;;-2.60;99.90;;;;;;4979349;28;20057;-77
2023/12/19 08:35:25;;;;;;;9.75;5.20;;;-2.70;99.90;;;;;;4979172;28;20314;-76
2023/12/19 08:37:52;;;;;;;10.38;6.47;;;-2.40;99.90;;;;;;4978842;28;20074;-76
2023/12/19 08:40:19;;;;;;;12.60;6.38;;;-1.80;99.90;;;;;;4977116;28;20472;-76
2023/12/19 08:42:44;;;;;;;10.88;6.07;;;-2.10;99.90;;;;;;4970637;28;20077;-76
2023/12/19 08:45:23;;;;;;;11.18;6.18;;;-2.00;99.90;;;;;;4980718;28;20019;-75
2023/12/19 08:47:50;;;;;;;10.88;6.18;;;-1.90;99.90;;;;;;4982981;28;20103;-76
2023/12/19 08:50:17;;;;;;;11.25;5.90;;;-1.90;99.90;;;;;;4966149;28;20038;-77
2023/12/19 08:52:43;;;;;;;12.07;6.70;;;-1.80;99.90;;;;;;4966303;28;20046;-76
2023/12/19 08:55:10;;;;;;;29.60;13.07;;;-1.70;99.90;;;;;;4966335;28;20074;-75
2023/12/19 08:57:43;;;;;;;17.27;9.52;;;-1.70;99.90;;;;;;4965559;28;20027;-77
2023/12/19 09:00:18;;;;;;;20.27;9.93;;;-1.80;99.90;;;;;;4982896;28;20057;-76
2023/12/19 09:02:45;;;;;;;17.83;9.35;;;-1.70;99.90;;;;;;4966277;28;20031;-76
2023/12/19 09:05:12;;;;;;;17.75;9.45;;;-1.50;99.90;;;;;;4983168;28;20297;-76
2023/12/19 09:07:38;;;;;;;19.25;10.75;;;-0.50;99.90;;;;;;4965143;28;20037;-76
2023/12/19 09:10:05;;;;;;;21.17;12.00;;;-1.20;99.90;;;;;;4983285;28;20023;-76
2023/12/19 09:12:31;;;;;;;38.05;15.98;;;-1.20;99.90;;;;;;4982940;28;20021;-76
2023/12/19 09:14:57;;;;;;;26.63;12.95;;;-1.20;99.90;;;;;;4965144;28;20057;-76
2023/12/19 09:17:23;;;;;;;17.67;9.75;;;-1.00;99.90;;;;;;4982736;28;20015;-76
2023/12/19 09:19:48;;;;;;;28.00;13.68;;;-0.80;99.90;;;;;;4979989;28;20286;-76
2023/12/19 09:22:14;;;;;;;28.98;14.55;;;-0.80;99.90;;;;;;4964486;29;20145;-76
2023/12/19 09:24:40;;;;;;;25.45;12.82;;;-0.80;99.90;;;;;;4963180;29;20085;-75
2023/12/19 09:27:06;;;;;;;25.75;12.27;;;-0.70;99.90;;;;;;4946537;29;20023;-76
2023/12/19 09:29:32;;;;;;;28.35;12.63;;;-0.60;99.90;;;;;;4963342;29;20062;-76
2023/12/19 09:32:01;;;;;;;26.50;12.00;;;-0.40;99.90;;;;;;4963501;29;20163;-76
2023/12/19 09:34:27;;;;;;;30.58;14.05;;;-0.30;99.90;;;;;;4963340;29;20329;-76
2023/12/19 09:36:53;;;;;;;20.67;11.52;;;-0.20;99.90;;;;;;4946129;29;20043;-76
2023/12/19 09:39:18;;;;;;;18.35;10.82;;;-0.30;99.90;;;;;;4963660;29;20054;-76
2023/12/19 09:41:47;;;;;;;23.98;10.80;;;-0.20;99.90;;;;;;4962775;28;20184;-76
2023/12/19 09:44:13;;;;;;;18.05;9.35;;;-0.30;99.90;;;;;;4963112;29;20331;-76
2023/12/19 09:46:41;;;;;;;15.70;8.35;;;0.10;99.90;;;;;;4963069;29;20038;-77
2023/12/19 09:49:10;;;;;;;14.80;8.43;;;0.40;99.90;;;;;;4963456;29;20038;-76
2023/12/19 09:51:42;;;;;;;24.52;11.02;;;0.30;99.90;;;;;;4949175;28;20035;-76
2023/12/19 09:54:08;;;;;;;17.27;7.18;;;0.40;99.90;;;;;;4964469;28;20345;-77
2023/12/19 09:56:34;;;;;;;19.98;11.38;;;0.50;99.90;;;;;;4982455;28;20660;-77
2023/12/19 09:59:03;;;;;;;16.17;9.45;;;0.50;99.90;;;;;;4964325;28;20256;-76
2023/12/19 10:01:29;;;;;;;11.07;7.25;;;0.60;99.90;;;;;;4982341;28;20039;-77
2023/12/19 10:03:59;;;;;;;13.68;7.80;;;0.60;99.90;;;;;;4974342;28;20042;-78
2023/12/19 10:06:25;;;;;;;25.65;11.60;;;0.50;99.90;;;;;;4972634;28;20422;-77
2023/12/19 10:08:55;;;;;;;15.10;8.07;;;0.60;99.90;;;;;;4954649;28;20133;-77
2023/12/19 10:11:21;;;;;;;18.85;10.35;;;0.70;99.90;;;;;;4972029;28;20487;-77
2023/12/19 10:13:48;;;;;;;15.23;9.40;;;0.80;99.90;;;;;;4957325;28;20027;-81
2023/12/19 10:16:20;;;;;;;16.08;8.43;;;0.90;99.90;;;;;;4972292;28;20023;-78
2023/12/19 10:18:56;;;;;;;15.43;9.57;;;1.00;99.90;;;;;;4954950;28;20058;-79
2023/12/19 10:21:23;;;;;;;12.82;8.10;;;1.00;99.90;;;;;;4954830;28;20014;-80
2023/12/19 10:23:49;;;;;;;19.42;9.73;;;1.10;99.90;;;;;;4958859;28;20085;-79
2023/12/19 10:26:15;;;;;;;43.00;19.25;;;1.20;99.90;;;;;;4959284;28;20085;-79
2023/12/19 10:28:44;;;;;;;17.67;8.95;;;1.20;99.90;;;;;;4957180;28;20393;-79
2023/12/19 10:31:17;;;;;;;12.50;7.88;;;1.30;99.90;;;;;;4957121;28;20030;-79
2023/12/19 10:34:24;;;;;;;16.50;8.85;;;1.40;99.90;;;;;;4956169;28;20044;-78
2023/12/19 10:36:50;;;;;;;14.98;7.97;;;1.40;99.90;;;;;;4960318;28;20491;-79
2023/12/19 10:39:23;;;;;;;11.98;7.28;;;2.30;99.90;;;;;;4956466;28;20038;-78
2023/12/19 10:41:49;;;;;;;11.60;7.35;;;1.50;99.90;;;;;;4955027;28;20026;-79
2023/12/19 10:44:16;;;;;;;16.05;6.88;;;1.50;99.90;;;;;;4952472;28;20116;-79
2023/12/19 10:46:46;;;;;;;14.30;7.53;;;1.70;99.90;;;;;;4952737;28;20023;-79
2023/12/19 10:49:14;;;;;;;11.80;6.82;;;1.10;99.90;;;;;;4952998;28;20177;-79
2023/12/19 10:51:50;;;;;;;9.00;6.95;;;1.90;99.90;;;;;;4949715;29;20019;-79
2023/12/19 10:54:27;;;;;;;12.50;6.30;;;2.00;99.90;;;;;;4934216;29;20027;-78
2023/12/19 10:56:59;;;;;;;11.55;5.25;;;2.10;99.90;;;;;;4933582;28;20225;-79
2023/12/19 10:59:51;;;;;;;12.77;5.43;;;2.30;99.90;;;;;;4935459;28;20035;-79
2023/12/19 11:02:41;;;;;;;9.63;5.70;;;2.50;99.90;;;;;;4933000;28;20027;-80
2023/12/19 11:05:33;;;;;;;11.80;5.57;;;2.60;99.90;;;;;;4933484;28;20067;-79
2023/12/19 11:08:08;;;;;;;10.73;5.78;;;2.60;99.90;;;;;;4933198;28;20051;-79
2023/12/19 11:10:39;;;;;;;6.05;4.32;;;2.70;99.90;;;;;;4932475;29;20034;-80
2023/12/19 11:13:04;;;;;;;11.18;5.88;;;2.70;99.90;;;;;;4950372;28;20380;-79
2023/12/19 11:15:34;;;;;;;10.38;5.65;;;2.90;99.90;;;;;;4932995;28;20547;-79
2023/12/19 11:18:25;;;;;;;11.68;5.63;;;3.20;99.90;;;;;;4933017;29;20027;-79
2023/12/19 11:21:00;;;;;;;5.05;3.08;;;3.60;99.90;;;;;;4932153;29;20523;-79
2023/12/19 11:24:10;;;;;;;6.53;3.70;;;3.90;99.90;;;;;;4933739;29;20039;-78
2023/12/19 11:27:18;;;;;;;9.90;4.90;;;4.10;99.90;;;;;;4934059;28;20042;-79
2023/12/19 11:30:07;;;;;;;10.10;4.53;;;4.10;99.90;;;;;;4934394;28;20023;-78
2023/12/19 11:32:35;;;;;;;7.97;4.30;;;4.10;99.90;;;;;;4934251;29;20543;-78
2023/12/19 11:35:07;;;;;;;9.27;4.97;;;3.90;99.90;;;;;;4932999;29;20045;-79
2023/12/19 11:37:34;;;;;;;7.38;5.03;;;3.80;99.90;;;;;;4934236;29;20124;-78
2023/12/19 11:40:00;;;;;;;7.70;4.43;;;3.60;99.90;;;;;;4933872;28;20130;-79
2023/12/19 11:42:38;;;;;;;8.32;4.20;;;3.60;99.90;;;;;;4933453;28;20627;-79
2023/12/19 11:45:18;;;;;;;10.45;5.05;;;3.60;99.90;;;;;;4951351;28;20030;-78
2023/12/19 11:47:45;;;;;;;7.05;4.38;;;3.60;99.90;;;;;;4934421;29;20059;-78
2023/12/19 11:50:11;;;;;;;8.25;4.55;;;3.50;99.90;;;;;;4933928;28;20419;-78
2023/12/19 11:52:42;;;;;;;8.60;3.92;;;3.40;99.90;;;;;;4962399;28;20464;-79
2023/12/19 11:55:08;;;;;;;11.65;4.95;;;3.40;99.90;;;;;;4952718;28;20023;-78
2023/12/19 11:57:34;;;;;;;10.25;5.60;;;3.40;99.90;;;;;;4970636;28;20023;-79
2023/12/19 12:00:06;;;;;;;13.35;5.53;;;3.40;99.90;;;;;;4970865;28;20140;-79
2023/12/19 12:03:10;;;;;;;7.38;4.45;;;3.60;99.90;;;;;;4953261;28;20505;-79
2023/12/19 12:06:04;;;;;;;11.82;5.38;;;3.70;99.90;;;;;;4969838;28;20038;-79
2023/12/19 12:09:11;;;;;;;10.60;6.13;;;3.90;99.90;;;;;;4970726;28;20023;-79
2023/12/19 12:11:52;;;;;;;11.80;5.55;;;4.00;99.90;;;;;;4949645;28;20680;-79
2023/12/19 12:14:17;;;;;;;11.13;6.35;;;4.20;99.90;;;;;;4970476;28;20054;-79
2023/12/19 12:16:43;;;;;;;12.57;6.60;;;5.70;99.90;;;;;;4953199;28;20479;-79
2023/12/19 12:19:19;;;;;;;9.65;5.68;;;4.50;99.90;;;;;;4971482;28;20056;-79
2023/12/19 12:22:26;;;;;;;;;;;;;;;;;;;;;
2023/12/19 12:24:53;;;;;;;9.02;4.72;;;5.00;99.90;;;;;;4970995;28;20120;-79
2023/12/19 12:27:30;;;;;;;11.88;6.30;;;6.20;99.90;;;;;;4957344;28;20395;-79
2023/12/19 12:30:19;;;;;;;12.43;6.20;;;4.70;99.90;;;;;;4974326;28;20259;-79
2023/12/19 12:35:49;;;;;;;7.82;5.25;;;4.00;99.90;;;;;;4972124;28;20034;-79
2023/12/19 12:38:25;;;;;;;11.95;6.55;;;3.80;99.90;;;;;;4974616;28;20067;-79
2023/12/19 12:40:56;;;;;;;10.13;5.45;;;3.70;99.90;;;;;;4956386;28;20606;-79
2023/12/19 12:43:39;;;;;;;11.70;5.50;;;3.60;99.90;;;;;;4956403;28;20062;-79
2023/12/19 12:46:13;;;;;;;9.50;6.05;;;3.60;99.90;;;;;;4956725;28;20118;-80
2023/12/19 12:48:47;;;;;;;10.23;6.15;;;3.70;99.90;;;;;;4956510;28;20110;-79
2023/12/19 12:51:16;;;;;;;8.90;4.93;;;3.90;99.90;;;;;;4973833;28;20471;-79